Time;durP1;ratioP1;P1;durP2;ratioP2;P2;SDS_P1;SDS_P2;PMS_P1;PMS_P2;Temp;Humidity;BMP_temperature;BMP_pressure;BME280_temperature;BME280_humidity;BME280_pressure;Samples;Min_cycle;Max_cycle;Signal;HPM_P1;HPM_P2
2021/03/18 00:02:10;;;;;;;5.45;2.83;;;;;;;-1.96;82.15;100198.42;1726962;81;21688;-83
2021/03/18 00:04:37;;;;;;;4.87;3.00;;;;;;;-1.98;82.26;100192.45;1728206;80;22249;-83
2021/03/18 00:07:04;;;;;;;5.80;3.65;;;;;;;-1.98;82.24;100187.34;1672599;82;21206;-82
2021/03/18 00:09:31;;;;;;;4.58;3.15;;;;;;;-1.99;82.18;100190.72;1685160;82;21430;-82
2021/03/18 00:11:58;;;;;;;8.85;3.15;;;;;;;-1.99;82.26;100193.28;1689945;83;21203;-83
2021/03/18 00:14:26;;;;;;;7.58;3.45;;;;;;;-2.00;82.21;100194.98;1684619;83;21352;-82
2021/03/18 00:16:53;;;;;;;;;;;;;;;-2.01;82.26;100184.75;1683585;82;21664;-83
2021/03/18 00:19:20;;;;;;;4.70;2.95;;;;;;;-2.00;82.33;100183.89;1684860;83;20620;-82
2021/03/18 00:21:47;;;;;;;6.22;2.65;;;;;;;-2.00;82.33;100183.89;1662466;83;21449;-82
2021/03/18 00:24:15;;;;;;;5.80;3.35;;;;;;;-1.96;82.39;100177.95;1681830;83;21163;-83
2021/03/18 00:26:42;;;;;;;4.58;2.85;;;;;;;-1.90;82.43;100183.16;1683987;82;21561;-82
2021/03/18 00:29:09;;;;;;;5.80;3.40;;;;;;;-1.86;82.49;100182.34;1682540;83;21586;-82
2021/03/18 00:31:36;;;;;;;5.85;2.95;;;;;;;-1.81;82.48;100179.41;1685184;83;21511;-82
2021/03/18 00:34:04;;;;;;;3.58;2.45;;;;;;;-1.76;82.59;100175.20;1679722;82;21252;-82
2021/03/18 00:36:31;;;;;;;6.20;2.98;;;;;;;-1.72;82.51;100170.53;1677934;82;21190;-82
2021/03/18 00:39:00;;;;;;;4.10;2.12;;;;;;;-1.70;82.51;100167.58;1678748;83;21134;-83
2021/03/18 00:41:28;;;;;;;5.62;2.50;;;;;;;-1.66;82.66;100168.02;1678875;83;22767;-82
2021/03/18 00:43:54;;;;;;;;;;;;;;;-1.65;82.58;100159.95;1688379;83;21605;-83
2021/03/18 00:46:21;;;;;;;4.40;2.47;;;;;;;-1.63;82.58;100168.05;1683572;83;20453;-83
2021/03/18 00:48:48;;;;;;;4.22;3.08;;;;;;;-1.61;82.60;100166.37;1682971;82;21669;-82
2021/03/18 00:51:17;;;;;;;7.08;3.45;;;;;;;-1.59;82.63;100158.28;1680200;83;22146;-82
2021/03/18 00:53:47;;;;;;;6.17;3.98;;;;;;;-1.57;82.63;100164.69;1686052;83;21626;-82
2021/03/18 00:56:18;;;;;;;5.22;3.42;;;;;;;-1.53;82.54;100168.16;1683753;82;21119;-83
2021/03/18 00:58:47;;;;;;;7.65;3.85;;;;;;;-1.52;82.48;100162.17;1675604;82;21176;-83
2021/03/18 01:01:19;;;;;;;7.90;3.70;;;;;;;-1.54;82.46;100158.73;1685722;82;21582;-83
2021/03/18 01:03:46;;;;;;;7.78;3.45;;;;;;;-1.58;82.39;100157.86;1662023;83;21134;-82
2021/03/18 01:06:21;;;;;;;6.65;3.12;;;;;;;-1.64;82.30;100143.30;1697951;81;21586;-82
2021/03/18 01:08:49;;;;;;;5.05;3.20;;;;;;;-1.70;82.37;100141.97;1694423;83;21959;-82
2021/03/18 01:11:20;;;;;;;5.25;3.22;;;;;;;-1.78;82.32;100144.88;1695053;81;21506;-83
2021/03/18 01:13:52;;;;;;;5.58;2.70;;;;;;;-1.84;82.39;100142.27;1696085;82;21426;-82
2021/03/18 01:16:24;;;;;;;6.25;2.87;;;;;;;-1.91;82.40;100140.47;1693956;82;21199;-82
2021/03/18 01:18:57;;;;;;;5.60;3.00;;;;;;;-1.98;82.41;100138.72;1689480;83;21400;-82
2021/03/18 01:21:32;;;;;;;5.17;3.17;;;;;;;-2.05;82.48;100136.49;1695448;82;21185;-81
2021/03/18 01:24:00;;;;;;;7.12;3.25;;;;;;;-2.11;82.52;100142.83;1696223;81;21224;-81
2021/03/18 01:26:27;;;;;;;5.22;2.90;;;;;;;-2.17;82.69;100134.67;1692491;83;21160;-82
2021/03/18 01:28:55;;;;;;;5.20;2.70;;;;;;;-2.22;82.84;100140.16;1681221;83;21866;-82
2021/03/18 01:31:22;;;;;;;5.67;3.15;;;;;;;-2.25;82.94;100142.25;1679839;83;21441;-81
2021/03/18 01:33:49;;;;;;;4.92;3.37;;;;;;;-2.28;82.84;100140.09;1685214;83;21303;-82
2021/03/18 01:36:16;;;;;;;;;;;;;;;-2.31;83.04;100142.61;1681832;83;21450;-81
2021/03/18 01:38:47;;;;;;;;;;;;;;;-2.34;82.96;100134.91;1680404;83;20428;-82
2021/03/18 01:41:15;;;;;;;;;;;;;;;-2.36;82.91;100140.42;1699651;83;20451;-82
2021/03/18 01:43:42;;;;;;;;;;;;;;;-2.39;82.87;100132.71;1701129;82;23154;-81
2021/03/18 01:46:10;;;;;;;;;;;;;;;-2.40;82.84;100139.95;1697076;81;20284;-81
2021/03/18 01:48:36;;;;;;;;;;;;;;;-2.42;82.91;100139.07;1667047;83;20398;-82
2021/03/18 01:51:04;;;;;;;;;;;;;;;-2.43;82.97;100132.25;1696911;83;20402;-81
2021/03/18 01:53:32;;;;;;;;;;;;;;;-2.45;82.95;100128.81;1676968;83;20272;-81
2021/03/18 01:56:00;;;;;;;;;;;;;;;-2.43;82.99;100127.14;1674465;83;21219;-81
2021/03/18 01:58:27;;;;;;;;;;;;;;;-2.41;83.08;100123.73;1678297;83;20359;-82
2021/03/18 02:00:57;;;;;;;;;;;;;;;-2.38;83.08;100133.14;1676348;83;20430;-82
2021/03/18 02:03:25;;;;;;;;;;;;;;;-2.36;83.16;100127.63;1701266;81;20532;-81
2021/03/18 02:05:52;;;;;;;;;;;;;;;-2.33;83.33;100122.55;1671105;83;20268;-81
2021/03/18 02:08:19;;;;;;;;;;;;;;;-2.28;83.23;100120.91;1692255;82;21693;-81
2021/03/18 02:10:46;;;;;;;;;;;;;;;-2.24;83.34;100117.55;1686026;83;20272;-81
2021/03/18 02:13:15;;;;;;;;;;;;;;;-2.19;83.28;100118.44;1689927;82;20269;-82
2021/03/18 02:16:00;;;;;;;;;;;;;;;-2.13;83.82;100118.92;1683547;82;21118;-81
2021/03/18 02:18:47;;;;;;;;;;;;;;;-2.08;83.45;100125.80;1685977;83;20256;-81
2021/03/18 02:21:40;;;;;;;;;;;;;;;-2.03;83.63;100116.48;1682660;82;21232;-81
2021/03/18 02:24:18;;;;;;;;;;;;;;;-1.97;83.49;100112.27;1676326;82;20569;-81
2021/03/18 02:27:16;;;;;;;;;;;;;;;-1.94;83.86;100107.18;1682270;83;20271;-81
2021/03/18 02:29:52;;;;;;;;;;;;;;;-1.91;83.45;100104.64;1688570;82;20272;-81
2021/03/18 02:32:56;;;;;;;;;;;;;;;-1.85;83.54;100113.66;1601254;87;20460;-81
2021/03/18 02:35:48;;;;;;;;;;;;;;;-1.84;83.89;100110.27;1597767;87;21302;-81
2021/03/18 02:38:20;;;;;;;;;;;;;;;-1.82;83.54;100102.16;1599936;87;20399;-81
2021/03/18 02:40:53;;;;;;;;;;;;;;;-1.81;83.44;100101.34;1594899;87;20473;-82
2021/03/18 02:43:22;;;;;;;;;;;;;;;-1.82;83.33;100097.92;1605484;87;21283;-81
2021/03/18 02:45:54;;;;;;;;;;;;;;;-1.81;83.35;100100.91;1599213;86;20369;-82
2021/03/18 02:48:27;;;;;;;;;;;;;;;-1.80;83.37;100105.59;1608024;87;21233;-81
2021/03/18 02:51:09;;;;;;;;;;;;;;;-1.75;83.33;100100.10;1842695;76;20609;-80
2021/03/18 02:53:36;;;;;;;;;;;;;;;-1.76;83.33;100106.48;1823505;76;20838;-79
2021/03/18 02:56:05;;;;;;;;;;;;;;;-1.75;83.33;100103.95;1826890;76;21640;-80
2021/03/18 02:58:35;;;;;;;;;;;;;;;-1.76;83.35;100104.80;1826264;77;20399;-80
2021/03/18 03:01:03;;;;;;;;;;;;;;;-1.78;83.57;100103.92;1831023;76;20443;-79
2021/03/18 03:03:31;;;;;;;;;;;;;;;-1.82;83.44;100108.16;1809096;77;20154;-80
2021/03/18 03:05:59;;;;;;;;;;;;;;;-1.81;83.66;100109.02;1827452;76;20255;-80
2021/03/18 03:08:27;;;;;;;;;;;;;;;-1.81;83.50;100104.75;1822663;76;22328;-80
2021/03/18 03:10:56;;;;;;;;;;;;;;;-1.78;83.51;100110.75;1835722;76;20163;-80
2021/03/18 03:13:26;;;;;;;;;;;;;;;-1.76;83.54;100110.31;1834052;77;20900;-80
2021/03/18 03:15:54;;;;;;;;;;;;;;;-1.75;83.63;100114.19;1830910;76;20781;-80
2021/03/18 03:18:22;;;;;;;;;;;;;;;-1.74;83.72;100118.45;1830427;76;20253;-80
2021/03/18 03:20:54;;;;;;;;;;;;;;;-1.73;83.54;100112.50;1800983;77;21196;-80
2021/03/18 03:23:22;;;;;;;;;;;;;;;-1.69;83.63;100111.67;1829748;76;20360;-80
2021/03/18 03:25:49;;;;;;;;;;;;;;;-1.65;83.86;100113.43;1829333;76;20205;-80
2021/03/18 03:28:16;;;;;;;;;;;;;;;-1.65;83.75;100115.99;1829976;75;20259;-80
2021/03/18 03:30:43;;;;;;;;;;;;;;;-1.65;83.69;100110.88;1829577;76;20283;-80
2021/03/18 03:33:10;;;;;;;;;;;;;;;-1.62;83.76;100118.58;1831260;76;21343;-80
2021/03/18 03:35:37;;;;;;;;;;;;;;;-1.63;83.68;100114.28;1828809;76;20194;-80
2021/03/18 03:38:05;;;;;;;;;;;;;;;-1.62;83.71;100116.02;1825603;76;20189;-80
2021/03/18 03:40:32;;;;;;;;;;;;;;;-1.56;83.99;100109.23;1795345;76;20885;-80
2021/03/18 03:42:59;;;;;;;;;;;;;;;-1.56;83.97;100106.67;1831739;76;20298;-80
2021/03/18 03:45:26;;;;;;;;;;;;;;;-1.59;84.00;100110.91;1837283;76;21417;-80
2021/03/18 03:47:53;;;;;;;;;;;;;;;-1.59;83.82;100103.66;1796207;77;20244;-80
2021/03/18 03:50:23;;;;;;;;;;;;;;;-1.54;83.82;100110.08;1822834;76;20167;-79
2021/03/18 03:52:53;;;;;;;;;;;;;;;-1.56;83.96;100114.36;1785270;76;20684;-80
2021/03/18 03:55:42;;;;;;;;;;;;;;;-1.60;84.56;100108.33;1829418;76;20394;-80
2021/03/18 03:58:24;;;;;;;;;;;;;;;-1.63;84.15;100106.59;1821657;76;21265;-80
2021/03/18 04:00:51;;;;;;;;;;;;;;;-1.62;84.03;100098.09;1829109;76;20360;-80
2021/03/18 04:03:18;;;;;;;;;;;;;;;-1.64;84.23;100108.73;1819251;76;20334;-81
2021/03/18 04:05:46;;;;;;;;;;;;;;;-1.67;83.91;100115.54;1821207;76;20261;-80
2021/03/18 04:08:14;;;;;;;;;;;;;;;-1.69;84.00;100114.23;1817638;76;20284;-80
2021/03/18 04:10:42;;;;;;;;;;;;;;;-1.71;84.11;100113.38;1825139;76;20624;-80
2021/03/18 04:13:10;;;;;;;;;;;;;;;-1.74;84.01;100115.89;1817620;76;20192;-81
2021/03/18 04:15:38;;;;;;;;;;;;;;;-1.72;84.01;100106.53;1816924;76;20612;-81
2021/03/18 04:18:07;;;;;;;;;;;;;;;-1.68;83.97;100109.97;1820288;76;20441;-81
2021/03/18 04:20:36;;;;;;;;;;;;;;;-1.66;84.14;100105.72;1829854;76;20306;-80
2021/03/18 04:23:06;;;;;;;;;;;;;;;-1.67;83.95;100105.30;1815338;76;22852;-81
2021/03/18 04:25:33;;;;;;;;;;;;;;;-1.66;84.07;100105.30;1818758;76;20826;-81
2021/03/18 04:28:00;;;;;;;;;;;;;;;-1.68;84.09;100105.73;1821486;76;20198;-81
2021/03/18 04:30:28;;;;;;;;;;;;;;;-1.69;84.07;100101.43;1825664;76;20370;-80
2021/03/18 04:32:56;;;;;;;;;;;;;;;-1.69;84.00;100107.83;1791185;76;20283;-80
2021/03/18 04:35:24;;;;;;;;;;;;;;;-1.66;84.10;100110.41;1818811;76;22763;-80
2021/03/18 04:37:52;;;;;;;;;;;;;;;-1.64;84.33;100102.33;1825990;76;20279;-80
2021/03/18 04:40:20;;;;;;;;;;;;;;;-1.64;84.19;100101.48;1823715;76;20488;-80
2021/03/18 04:42:47;;;;;;;;;;;;;;;-1.63;84.31;100100.63;1823645;76;20846;-80
2021/03/18 04:45:16;;;;;;;;;;;;;;;-1.64;84.29;100107.45;1823366;76;20420;-80
2021/03/18 04:47:44;;;;;;;;;;;;;;;-1.64;84.48;100104.89;1821974;76;21261;-80
2021/03/18 04:50:12;;;;;;;;;;;;;;;-1.67;84.38;100104.87;1815865;76;20343;-81
2021/03/18 04:52:40;;;;;;;;;;;;;;;-1.69;84.45;100106.55;1801523;77;20928;-79
2021/03/18 04:55:09;;;;;;;;;;;;;;;-1.71;84.35;100095.46;1804105;77;20631;-81
2021/03/18 04:57:39;;;;;;;;;;;;;;;-1.71;84.23;100098.02;1814183;77;20817;-80
2021/03/18 05:00:06;;;;;;;;;;;;;;;-1.71;84.18;100105.70;1810198;77;20995;-80
2021/03/18 05:02:35;;;;;;;;;;;;;;;-1.72;84.50;100102.69;1798667;78;20283;-80
2021/03/18 05:05:02;;;;;;;;;;;;;;;-1.72;84.10;100103.97;1806923;78;20470;-74
2021/03/18 05:07:31;;;;;;;;;;;;;;;-1.72;84.20;100101.41;1802932;78;20373;-78
2021/03/18 05:09:58;;;;;;;;;;;;;;;-1.72;84.14;100100.55;1805335;77;20432;-78
2021/03/18 05:12:25;;;;;;;;;;;;;;;-1.72;84.05;100098.84;1806693;77;22375;-76
2021/03/18 05:14:52;;;;;;;;;;;;;;;-1.68;84.09;100095.48;1797702;77;20273;-78
2021/03/18 05:17:19;;;;;;;;;;;;;;;-1.65;84.00;100093.38;1807789;77;20253;-70
2021/03/18 05:19:46;;;;;;;;;;;;;;;-1.64;84.00;100092.09;1806724;78;20668;-73
2021/03/18 05:22:13;;;;;;;;;;;;;;;-1.65;83.88;100090.39;1803922;78;20267;-74
2021/03/18 05:24:41;;;;;;;;;;;;;;;-1.64;83.85;100084.41;1802612;77;21405;-74
2021/03/18 05:27:08;;;;;;;;;;;;;;;-1.62;83.88;100072.48;1774840;78;20259;-73
2021/03/18 05:29:35;;;;;;;;;;;;;;;-1.58;83.90;100083.17;1759019;78;20686;-73
2021/03/18 05:32:01;;;;;;;;;;;;;;;-1.54;83.78;100085.75;1739123;80;20311;-74
2021/03/18 05:34:28;;;;;;;;;;;;;;;-1.53;83.67;100087.48;1768634;78;20264;-73
2021/03/18 05:36:55;;;;;;;;;;;;;;;-1.47;83.70;100096.49;1763627;78;21779;-73
2021/03/18 05:39:21;;;;;;;;;;;;;;;-1.46;83.62;100096.48;1772355;78;20943;-73
2021/03/18 05:41:48;;;;;;;;;;;;;;;-1.43;83.59;100088.85;1768672;78;20288;-73
2021/03/18 05:44:15;;;;;;;;;;;;;;;-1.41;83.51;100090.12;1770563;80;20965;-73
2021/03/18 05:46:45;;;;;;;;;;;;;;;-1.42;83.40;100089.70;1775737;78;20324;-73
2021/03/18 05:49:12;;;;;;;;;;;;;;;-1.43;83.47;100093.09;1747099;80;21161;-73
2021/03/18 05:51:41;;;;;;;;;;;;;;;-1.42;83.42;100089.27;1773618;78;20760;-73
2021/03/18 05:54:09;;;;;;;;;;;;;;;-1.39;83.40;100091.00;1782303;78;20846;-73
2021/03/18 05:56:38;;;;;;;;;;;;;;;-1.41;83.28;100095.25;1778920;79;20317;-72
2021/03/18 05:59:05;;;;;;;;;;;;;;;-1.42;83.35;100089.70;1779644;79;20833;-73
2021/03/18 06:01:33;;;;;;;;;;;;;;;-1.42;83.39;100093.55;1778046;79;21211;-73
2021/03/18 06:04:01;;;;;;;;;;;;;;;-1.39;83.49;100087.16;1769429;78;20395;-73
2021/03/18 06:06:28;;;;;;;;;;;;;;;-1.37;83.24;100091.87;1779248;79;20295;-73
2021/03/18 06:08:55;;;;;;;;;;;;;;;-1.36;83.34;100090.59;1779315;79;20605;-73
2021/03/18 06:11:21;;;;;;;;;;;;;;;-1.32;83.30;100092.74;1772847;78;20262;-73
2021/03/18 06:13:48;;;;;;;;;;;;;;;-1.26;83.40;100094.48;1772325;79;20959;-73
2021/03/18 06:16:15;;;;;;;;;;;;;;;-1.24;83.10;100093.66;1764113;78;20291;-73
2021/03/18 06:18:42;;;;;;;;;;;;;;;-1.18;83.49;100081.30;1775002;78;20514;-73
2021/03/18 06:21:09;;;;;;;;;;;;;;;-1.03;83.61;100083.12;1762329;78;20719;-74
2021/03/18 06:23:36;;;;;;;;;;;;;;;-0.96;83.16;100082.29;1771483;78;20250;-73
2021/03/18 06:26:04;;;;;;;;;;;;;;;-0.88;83.06;100080.63;1769591;78;21245;-74
2021/03/18 06:28:35;;;;;;;;;;;;;;;-0.82;83.07;100083.21;1768327;78;20289;-73
2021/03/18 06:31:16;;;;;;;;;;;;;;;-0.69;83.37;100079.00;1772960;78;20907;-73
2021/03/18 06:33:50;;;;;;;;;;;;;;;-0.51;83.31;100073.08;1770313;78;20307;-74
2021/03/18 06:36:21;;;;;;;;;;;;;;;-0.39;83.12;100078.27;1763791;78;20346;-74
2021/03/18 06:39:06;;;;;;;;;;;;;;;-0.29;82.94;100077.41;1737952;80;21440;-73
2021/03/18 06:41:42;;;;;;;;;;;;;;;-0.15;83.04;100074.03;1758698;78;20289;-73
2021/03/18 06:44:19;;;;;;;;;;;;;;;-0.02;82.64;100073.20;1769181;78;20289;-74
2021/03/18 06:46:46;;;;;;;;;;;;;;;0.03;82.82;100071.50;1741211;80;20270;-74
2021/03/18 06:49:16;;;;;;;;;;;;;;;0.18;82.83;100066.36;1762265;78;20334;-73
2021/03/18 06:51:43;;;;;;;;;;;;;;;0.33;82.55;100069.79;1771064;78;21270;-74
2021/03/18 06:54:18;;;;;;;;;;;;;;;0.48;82.43;100067.23;1776582;78;20261;-74
2021/03/18 06:56:48;;;;;;;;;;;;;;;0.74;82.75;100071.47;1769811;78;20474;-74
2021/03/18 06:59:30;;;;;;;;;;;;;;;1.42;83.13;100066.53;1763982;78;20565;-74
2021/03/18 07:02:09;;;;;;;;;;;;;;;2.26;82.72;100060.00;1760668;78;20952;-74
2021/03/18 07:04:42;;;;;;;;;;;;;;;2.74;80.96;100061.72;1773658;78;21460;-74
2021/03/18 07:07:10;;;;;;;;;;;;;;;2.83;81.09;100059.06;1771894;78;20308;-75
2021/03/18 07:09:39;;;;;;;;;;;;;;;3.29;81.11;100053.38;1773451;78;20158;-74
2021/03/18 07:12:09;;;;;;;;;;;;;;;3.64;81.15;100049.50;1780681;78;20257;-75
2021/03/18 07:14:44;;;;;;;;;;;;;;;4.05;80.80;100041.56;1774250;78;20373;-73
2021/03/18 07:17:20;;;;;;;;;;;;;;;3.99;79.85;100042.95;1771733;78;21778;-73
2021/03/18 07:19:47;;;;;;;;;;;;;;;3.78;79.83;100039.83;1781311;78;20262;-74
2021/03/18 07:22:19;;;;;;;;;;;;;;;3.41;78.08;100036.02;1792882;77;20452;-74
2021/03/18 07:24:54;;;;;;;;;;;;;;;2.99;78.91;100031.36;1767081;79;20508;-77
2021/03/18 07:27:21;;;;;;;;;;;;;;;2.89;79.57;100028.48;1767618;79;20739;-76
2021/03/18 07:29:50;;;;;;;;;;;;;;;2.76;77.69;100029.04;1767192;79;21703;-74
2021/03/18 07:32:17;;;;;;;;;;;;;;;2.56;78.92;100020.66;1789920;77;20262;-75
2021/03/18 07:34:44;;;;;;;;;;;;;;;2.40;77.72;100025.95;1763578;79;20813;-76
2021/03/18 07:37:12;;;;;;;;;;;;;;;2.06;78.23;100019.38;1761174;78;20415;-74
2021/03/18 07:39:42;;;;;;;;;;;;;;;1.91;78.56;100022.50;1772935;78;20336;-75
2021/03/18 07:42:10;;;;;;;;;;;;;;;1.95;79.86;100028.47;1775724;79;22413;-74
2021/03/18 07:44:40;;;;;;;;;;;;;;;2.07;77.39;100029.66;1773792;78;20279;-74
2021/03/18 07:47:08;;;;;;;;;;;;;;;1.94;78.13;100036.64;1773824;78;20339;-74
2021/03/18 07:49:46;;;;;;;;;;;;;;;1.79;78.56;100036.73;1776634;78;20605;-74
2021/03/18 07:52:17;;;;;;;;;;;;;;;1.86;79.34;100038.41;1789580;78;20410;-74
2021/03/18 07:54:49;;;;;;;;;;;;;;;1.90;79.71;100040.08;1777688;78;21283;-75
2021/03/18 07:57:17;;;;;;;;;;;;;;;2.00;79.31;100036.59;1781128;78;21035;-74
2021/03/18 07:59:45;;;;;;;;;;;;;;;1.88;79.21;100037.98;1778959;78;20427;-72
2021/03/18 08:02:17;;;;;;;;;;;;;;;1.80;76.79;100046.18;1778068;78;20296;-75
2021/03/18 08:04:46;;;;;;;;;;;;;;;1.50;76.81;100042.91;1780820;78;20623;-74
2021/03/18 08:07:41;;;;;;;;;;;;;;;1.45;79.41;100040.78;1787211;78;21208;-73
2021/03/18 08:10:11;;;;;;;;;;;;;;;1.58;79.48;100039.45;1782035;78;20257;-75
2021/03/18 08:12:55;;;;;;;;;;;;;;;1.53;78.45;100036.45;1787284;78;20918;-74
2021/03/18 08:15:24;;;;;;;;;;;;;;;1.26;76.93;100044.30;1703888;81;20440;-74
2021/03/18 08:17:56;;;;;;;;;;;;;;;1.10;78.37;100045.66;1688418;82;20305;-74
2021/03/18 08:20:44;;;;;;;;;;;;;;;1.03;78.30;100045.68;1698721;82;22047;-74
2021/03/18 08:23:26;;;;;;;;;;;;;;;0.97;78.58;100038.84;1787773;78;20419;-74
2021/03/18 08:26:04;;;;;;;;;;;;;;;0.84;78.51;100037.16;1761970;80;20291;-75
2021/03/18 08:28:38;;;;;;;;;;;;;;;1.04;79.52;100033.27;1752496;80;21411;-74
2021/03/18 08:31:08;;;;;;;;;;;;;;;1.10;78.08;100031.52;1753851;80;20465;-73
2021/03/18 08:33:37;;;;;;;;;;;;;;;1.23;79.13;100035.31;1757135;79;21036;-75
2021/03/18 08:36:20;;;;;;;;;;;;;;;1.15;77.37;100034.48;1763901;80;20324;-75
2021/03/18 08:39:01;;;;;;;;;;;;;;;1.23;78.35;100032.74;1813937;77;20474;-75
2021/03/18 08:41:34;;;;;;;;;;;;;;;1.23;78.42;100037.89;1788192;78;20380;-75
2021/03/18 08:44:29;;;;;;;;;;;;;;;1.16;77.77;100037.07;1751902;79;21211;-75
2021/03/18 08:47:08;;;;;;;;;;;;;;;1.05;78.05;100038.83;1721773;80;20485;-75
2021/03/18 08:49:38;;;;;;;;;;;;;;;1.10;79.00;100037.09;1719195;81;20459;-74
2021/03/18 08:52:09;;;;;;;;;;;;;;;1.22;79.31;100042.62;1741087;80;20586;-75
2021/03/18 08:54:51;;;;;;;;;;;;;;;1.46;79.90;100038.66;1740203;80;20329;-75
2021/03/18 08:57:24;;;;;;;;;;;;;;;1.81;79.74;100036.30;1741677;80;21189;-75
2021/03/18 09:02:48;;;;;;;;;;;;;;;2.28;79.32;100031.22;1728596;81;20397;-76
2021/03/18 09:05:18;;;;;;;;;;;;;;;2.61;79.54;100022.33;1745750;80;20449;-76
2021/03/18 09:07:46;;;;;;;;;;;;;;;2.65;76.58;100031.72;1735697;80;20287;-75
2021/03/18 09:10:21;;;;;;;;;;;;;;;2.71;78.07;100024.36;1727557;81;22786;-76
2021/03/18 09:12:51;;;;;;;;;;;;;;;2.71;75.27;100033.38;1739353;79;20382;-75
2021/03/18 09:15:21;;;;;;;;;;;;;;;2.32;73.93;100020.00;1737306;81;20333;-76
2021/03/18 09:17:51;;;;;;;;;;;;;;;2.06;75.33;100019.38;1738349;81;20477;-77
2021/03/18 09:20:21;;;;;;;;;;;;;;;1.66;74.57;100028.25;1735298;81;20529;-76
2021/03/18 09:22:49;;;;;;;;;;;;;;;1.36;73.28;100031.83;1732119;81;22943;-76
2021/03/18 09:25:16;;;;;;;;;;;;;;;1.16;75.50;100034.94;1738031;79;20441;-74
2021/03/18 09:27:45;;;;;;;;;;;;;;;1.07;75.77;100030.25;1740768;81;20332;-75
2021/03/18 09:30:22;;;;;;;;;;;;;;;1.09;76.31;100038.82;1739572;81;20432;-75
2021/03/18 09:32:49;;;;;;;;;;;;;;;1.14;75.75;100030.22;1736370;81;20594;-74
2021/03/18 09:35:17;;;;;;;;;;;;;;;1.25;76.31;100031.88;1731624;81;21279;-75
2021/03/18 09:37:45;;;;;;;;;;;;;;;1.43;76.60;100019.38;1730652;81;20297;-73
2021/03/18 09:40:13;;;;;;;;;;;;;;;1.58;75.07;100019.71;1734737;81;20342;-74
2021/03/18 09:42:40;;;;;;;;;;;;;;;1.65;74.96;100024.38;1734879;79;20299;-75
2021/03/18 09:45:08;;;;;;;;;;;;;;;1.79;75.44;100023.86;1737213;81;21091;-74
2021/03/18 09:47:52;;;;;;;5.37;1.80;;;;;;;2.14;76.50;100011.16;1840929;76;23787;-74
2021/03/18 09:50:27;;;;;;;4.45;1.98;;;;;;;2.36;75.88;100002.38;1789332;77;21197;-73
2021/03/18 09:53:11;;;;;;;2.35;1.67;;;;;;;2.33;72.02;100012.72;1790809;78;21657;-73
2021/03/18 09:58:17;;;;;;;3.17;1.37;;;;;;;2.18;68.98;99996.09;1791965;78;21078;-73
2021/03/18 10:00:46;;;;;;;2.37;1.40;;;;;;;2.02;70.71;100008.27;1765259;79;21213;-73
2021/03/18 10:03:14;;;;;;;3.45;1.85;;;;;;;1.94;70.73;100008.31;1754444;79;21044;-73
2021/03/18 10:05:41;;;;;;;1.77;1.30;;;;;;;1.87;70.21;100009.20;1784786;78;21402;-73
2021/03/18 10:08:08;;;;;;;2.27;1.30;;;;;;;1.95;69.15;100010.01;1791698;78;22051;-72
2021/03/18 10:10:35;;;;;;;3.02;1.32;;;;;;;1.98;71.07;100013.84;1788846;78;21075;-72
2021/03/18 10:13:03;;;;;;;2.22;1.32;;;;;;;2.03;69.45;100006.53;1788696;78;21612;-73
2021/03/18 10:15:31;;;;;;;4.55;2.10;;;;;;;1.89;68.27;100004.91;1789843;78;21163;-73
2021/03/18 10:17:59;;;;;;;4.60;1.82;;;;;;;2.01;69.45;100007.38;1790505;77;21193;-72
2021/03/18 10:20:32;;;;;;;2.22;1.32;;;;;;;2.05;69.40;100004.81;1785990;77;22944;-73
2021/03/18 10:23:11;;;;;;;3.98;2.80;;;;;;;2.09;70.67;100003.91;1792188;78;21147;-74
2021/03/18 10:25:40;;;;;;;3.30;2.10;;;;;;;1.97;69.23;99997.98;1785138;78;21255;-74
2021/03/18 10:28:14;;;;;;;3.02;1.80;;;;;;;1.97;70.52;99999.27;1782681;78;21217;-72
2021/03/18 10:30:45;;;;;;;2.20;1.17;;;;;;;1.93;69.26;99993.73;1787896;78;21568;-73
2021/03/18 10:33:16;;;;;;;3.20;1.22;;;;;;;1.67;68.92;100003.35;1788783;77;21185;-73
2021/03/18 10:35:53;;;;;;;2.50;1.70;;;;;;;1.71;69.21;99991.75;1786568;78;21025;-72
2021/03/18 10:38:29;;;;;;;2.52;1.77;;;;;;;1.70;71.65;99990.45;1788101;78;21191;-72
2021/03/18 10:40:59;;;;;;;2.60;1.57;;;;;;;1.77;71.58;99986.98;1784390;78;21176;-74
2021/03/18 10:43:30;;;;;;;3.17;1.95;;;;;;;1.82;71.98;99983.95;1768935;78;21265;-75
2021/03/18 10:46:02;;;;;;;3.10;1.40;;;;;;;1.88;71.29;99989.48;1784825;79;21170;-73
2021/03/18 10:48:33;;;;;;;2.90;1.52;;;;;;;1.76;68.28;99985.26;1794447;77;21159;-69
2021/03/18 10:51:15;;;;;;;2.00;1.70;;;;;;;1.56;69.87;99990.11;1782508;78;21243;-70
2021/03/18 10:53:45;;;;;;;3.15;1.82;;;;;;;1.54;70.67;99980.28;1790208;78;21184;-72
2021/03/18 10:56:19;;;;;;;3.27;1.90;;;;;;;1.59;71.24;99993.53;1788025;78;21612;-71
2021/03/18 10:58:47;;;;;;;4.62;1.80;;;;;;;1.62;69.39;99992.23;1798167;78;21791;-70
2021/03/18 11:01:36;;;;;;;2.80;1.80;;;;;;;1.46;69.76;99991.05;1792981;78;21086;-71
2021/03/18 11:04:06;;;;;;;2.30;1.45;;;;;;;1.28;69.96;99995.00;1680403;83;21648;-72
2021/03/18 11:06:33;;;;;;;3.25;2.12;;;;;;;1.13;70.78;99982.23;1681345;83;21271;-69
2021/03/18 11:09:01;;;;;;;3.92;2.33;;;;;;;1.04;70.99;99991.69;1682790;83;21784;-71
2021/03/18 11:11:30;;;;;;;;;;;;;;;0.96;71.31;99990.02;1691663;83;21738;-69
2021/03/18 11:14:10;;;;;;;3.08;1.80;;;;;;;0.97;71.83;99984.84;1671762;84;21243;-71
2021/03/18 11:16:38;;;;;;;4.10;1.80;;;;;;;1.05;71.88;99986.95;1689849;83;21231;-70
2021/03/18 11:19:09;;;;;;;2.22;1.47;;;;;;;0.97;72.02;99991.27;1679367;83;21268;-72
2021/03/18 11:21:43;;;;;;;2.55;2.00;;;;;;;0.94;71.39;99992.58;1679443;84;21291;-69
2021/03/18 11:24:19;;;;;;;2.75;1.80;;;;;;;0.88;71.54;99991.32;1677971;83;21238;-72
2021/03/18 11:27:00;;;;;;;3.70;2.17;;;;;;;0.92;72.41;99982.72;1674214;83;21615;-69
2021/03/18 11:29:32;;;;;;;3.10;2.37;;;;;;;1.10;72.39;99981.38;1672947;83;21250;-70
2021/03/18 11:32:04;;;;;;;3.35;2.20;;;;;;;1.05;71.91;99976.67;1678074;83;21637;-70
2021/03/18 11:34:36;;;;;;;3.20;2.40;;;;;;;1.25;72.56;99975.28;1678195;83;21267;-69
2021/03/18 11:37:09;;;;;;;3.67;2.00;;;;;;;1.44;72.24;99979.91;1679887;83;21263;-69
2021/03/18 11:39:38;;;;;;;3.10;2.00;;;;;;;1.55;72.01;99966.53;1680145;83;21712;-72
2021/03/18 11:42:06;;;;;;;7.17;3.85;;;;;;;1.66;71.63;99960.47;1680023;83;21311;-69
2021/03/18 11:44:33;;;;;;;3.40;2.60;;;;;;;1.74;72.58;99963.41;1677544;83;21214;-68
2021/03/18 11:47:07;;;;;;;4.65;2.22;;;;;;;1.68;70.33;99966.03;1677754;83;21850;-70
2021/03/18 11:49:36;;;;;;;8.10;3.77;;;;;;;1.45;71.00;99968.73;1674842;83;21273;-70
2021/03/18 11:52:05;;;;;;;4.87;2.65;;;;;;;1.40;72.19;99958.93;1680300;83;21232;-70
2021/03/18 11:54:33;;;;;;;5.87;3.17;;;;;;;1.41;72.35;99958.49;1678727;83;21231;-74
2021/03/18 11:57:00;;;;;;;5.55;4.15;;;;;;;1.35;71.56;99947.80;1679207;82;21214;-75
2021/03/18 11:59:28;;;;;;;7.53;4.03;;;;;;;1.14;72.34;99968.49;1679568;84;22041;-74
2021/03/18 12:01:55;;;;;;;5.85;3.85;;;;;;;0.94;72.62;99964.30;1657393;84;21241;-76
2021/03/18 12:04:22;;;;;;;5.45;3.50;;;;;;;0.65;72.64;99967.83;1678481;84;26939;-74
2021/03/18 12:06:49;;;;;;;6.70;3.47;;;;;;;0.45;72.84;99959.33;1677905;83;21680;-78
2021/03/18 12:09:16;;;;;;;3.95;2.62;;;;;;;0.46;73.03;99953.33;1672637;84;21184;-76
2021/03/18 12:11:43;;;;;;;4.03;2.92;;;;;;;0.56;73.19;99955.02;1669382;84;21213;-75
2021/03/18 12:14:10;;;;;;;6.85;5.08;;;;;;;0.71;72.87;99957.12;1672895;84;21277;-75
2021/03/18 12:16:37;;;;;;;10.72;7.08;;;;;;;0.84;73.01;99949.76;1669563;84;21277;-76
2021/03/18 12:19:05;;;;;;;12.80;8.08;;;;;;;1.03;73.13;99946.24;1683064;84;21792;-74
2021/03/18 12:21:31;;;;;;;7.55;5.50;;;;;;;1.27;73.40;99949.57;1680698;83;21234;-76
2021/03/18 12:23:59;;;;;;;6.05;4.40;;;;;;;1.55;73.17;99942.09;1680066;83;21221;-76
2021/03/18 12:26:26;;;;;;;8.03;4.62;;;;;;;1.74;72.72;99940.67;1673730;83;21231;-76
2021/03/18 12:28:53;;;;;;;5.05;3.27;;;;;;;1.84;72.90;99935.85;1678916;82;28864;-75
2021/03/18 12:31:20;;;;;;;6.45;3.92;;;;;;;1.99;71.91;99928.02;1679355;84;21222;-75
2021/03/18 12:33:47;;;;;;;5.12;3.00;;;;;;;2.02;72.30;99931.00;1657007;85;21264;-75
2021/03/18 12:36:14;;;;;;;5.55;3.50;;;;;;;2.05;71.80;99918.53;1669664;83;21654;-75
2021/03/18 12:38:40;;;;;;;7.60;4.47;;;;;;;2.10;71.14;99928.33;1675978;84;21247;-75